sensor_id;sensor_type;location;lat;lon;timestamp;temperature;humidity
13589;DHT22;6865;52.552;13.434;2023-09-19T00:00:35;18.30;99.90
13589;DHT22;6865;52.552;13.434;2023-09-19T00:03:02;18.30;99.90
13589;DHT22;6865;52.552;13.434;2023-09-19T00:05:34;18.20;99.90
13589;DHT22;6865;52.552;13.434;2023-09-19T00:08:02;18.20;99.90
13589;DHT22;6865;52.552;13.434;2023-09-19T00:10:33;18.10;99.90
13589;DHT22;6865;52.552;13.434;2023-09-19T00:13:03;18.00;99.90
13589;DHT22;6865;52.552;13.434;2023-09-19T00:15:39;18.10;99.90
13589;DHT22;6865;52.552;13.434;2023-09-19T00:18:07;18.10;99.90
13589;DHT22;6865;52.552;13.434;2023-09-19T00:20:38;18.10;99.90
13589;DHT22;6865;52.552;13.434;2023-09-19T00:23:05;18.10;99.90
13589;DHT22;6865;52.552;13.434;2023-09-19T00:25:33;18.00;99.90
13589;DHT22;6865;52.552;13.434;2023-09-19T00:28:02;18.00;99.90
13589;DHT22;6865;52.552;13.434;2023-09-19T00:30:29;18.00;99.90
13589;DHT22;6865;52.552;13.434;2023-09-19T00:32:55;18.00;99.90
13589;DHT22;6865;52.552;13.434;2023-09-19T00:35:22;18.00;99.90
13589;DHT22;6865;52.552;13.434;2023-09-19T00:37:53;17.90;99.90
13589;DHT22;6865;52.552;13.434;2023-09-19T00:40:20;17.80;99.90
13589;DHT22;6865;52.552;13.434;2023-09-19T00:42:48;17.80;99.90
13589;DHT22;6865;52.552;13.434;2023-09-19T00:45:17;17.90;99.90
13589;DHT22;6865;52.552;13.434;2023-09-19T00:47:47;17.80;99.90
13589;DHT22;6865;52.552;13.434;2023-09-19T00:50:21;17.80;99.90
13589;DHT22;6865;52.552;13.434;2023-09-19T00:52:50;17.80;99.90
13589;DHT22;6865;52.552;13.434;2023-09-19T00:55:19;17.80;99.90
13589;DHT22;6865;52.552;13.434;2023-09-19T00:57:48;17.80;99.90
13589;DHT22;6865;52.552;13.434;2023-09-19T01:00:17;17.80;99.90
13589;DHT22;6865;52.552;13.434;2023-09-19T01:02:47;17.80;99.90
13589;DHT22;6865;52.552;13.434;2023-09-19T01:05:14;17.80;99.90
13589;DHT22;6865;52.552;13.434;2023-09-19T01:07:41;17.80;99.90
13589;DHT22;6865;52.552;13.434;2023-09-19T01:10:10;17.70;99.90
13589;DHT22;6865;52.552;13.434;2023-09-19T01:13:05;17.70;99.90
13589;DHT22;6865;52.552;13.434;2023-09-19T01:18:16;17.80;99.90
13589;DHT22;6865;52.552;13.434;2023-09-19T01:21:26;17.90;99.90
13589;DHT22;6865;52.552;13.434;2023-09-19T01:24:05;17.80;99.90
13589;DHT22;6865;52.552;13.434;2023-09-19T01:26:56;17.80;99.90
13589;DHT22;6865;52.552;13.434;2023-09-19T01:29:42;17.90;99.90
13589;DHT22;6865;52.552;13.434;2023-09-19T01:32:15;17.90;99.90
13589;DHT22;6865;52.552;13.434;2023-09-19T01:34:54;17.90;99.90
13589;DHT22;6865;52.552;13.434;2023-09-19T01:37:24;18.00;99.90
13589;DHT22;6865;52.552;13.434;2023-09-19T01:39:59;18.00;99.90
13589;DHT22;6865;52.552;13.434;2023-09-19T01:42:43;17.90;99.90
13589;DHT22;6865;52.552;13.434;2023-09-19T01:45:13;17.90;99.90
13589;DHT22;6865;52.552;13.434;2023-09-19T01:47:50;17.90;99.90
13589;DHT22;6865;52.552;13.434;2023-09-19T01:50:32;18.00;99.90
13589;DHT22;6865;52.552;13.434;2023-09-19T01:53:15;18.00;99.90
13589;DHT22;6865;52.552;13.434;2023-09-19T01:55:48;18.00;99.90
13589;DHT22;6865;52.552;13.434;2023-09-19T02:01:07;18.00;99.90
13589;DHT22;6865;52.552;13.434;2023-09-19T02:03:35;17.90;99.90
13589;DHT22;6865;52.552;13.434;2023-09-19T02:06:03;17.70;99.90
13589;DHT22;6865;52.552;13.434;2023-09-19T02:08:31;17.90;99.90
13589;DHT22;6865;52.552;13.434;2023-09-19T02:11:00;17.80;99.90
13589;DHT22;6865;52.552;13.434;2023-09-19T02:13:27;17.80;99.90
13589;DHT22;6865;52.552;13.434;2023-09-19T02:15:54;17.80;99.90
13589;DHT22;6865;52.552;13.434;2023-09-19T02:18:22;17.80;99.90
13589;DHT22;6865;52.552;13.434;2023-09-19T02:20:49;17.70;99.90
13589;DHT22;6865;52.552;13.434;2023-09-19T02:23:17;17.70;99.90
13589;DHT22;6865;52.552;13.434;2023-09-19T02:25:52;17.70;99.90
13589;DHT22;6865;52.552;13.434;2023-09-19T02:28:19;17.60;99.90
13589;DHT22;6865;52.552;13.434;2023-09-19T02:30:49;17.60;99.90
13589;DHT22;6865;52.552;13.434;2023-09-19T02:33:16;17.60;99.90
13589;DHT22;6865;52.552;13.434;2023-09-19T02:35:46;17.50;99.90
13589;DHT22;6865;52.552;13.434;2023-09-19T02:38:13;17.60;99.90
13589;DHT22;6865;52.552;13.434;2023-09-19T02:40:41;17.70;99.90
13589;DHT22;6865;52.552;13.434;2023-09-19T02:43:09;17.80;99.90
13589;DHT22;6865;52.552;13.434;2023-09-19T02:45:36;17.80;99.90
13589;DHT22;6865;52.552;13.434;2023-09-19T02:48:03;17.70;99.90
13589;DHT22;6865;52.552;13.434;2023-09-19T02:50:30;17.70;99.90
13589;DHT22;6865;52.552;13.434;2023-09-19T02:52:57;17.70;99.90
13589;DHT22;6865;52.552;13.434;2023-09-19T02:55:24;17.60;99.90
13589;DHT22;6865;52.552;13.434;2023-09-19T02:57:52;17.50;99.90
13589;DHT22;6865;52.552;13.434;2023-09-19T03:00:21;17.30;99.90
13589;DHT22;6865;52.552;13.434;2023-09-19T03:02:55;17.40;99.90
13589;DHT22;6865;52.552;13.434;2023-09-19T03:05:23;17.30;99.90
13589;DHT22;6865;52.552;13.434;2023-09-19T03:07:50;17.30;99.90
13589;DHT22;6865;52.552;13.434;2023-09-19T03:10:20;17.30;99.90
13589;DHT22;6865;52.552;13.434;2023-09-19T03:12:47;17.30;99.90
13589;DHT22;6865;52.552;13.434;2023-09-19T03:15:15;17.40;99.90
13589;DHT22;6865;52.552;13.434;2023-09-19T03:17:47;17.40;99.90
13589;DHT22;6865;52.552;13.434;2023-09-19T03:20:14;17.40;99.90
13589;DHT22;6865;52.552;13.434;2023-09-19T03:22:44;17.50;99.90
13589;DHT22;6865;52.552;13.434;2023-09-19T03:25:11;17.50;99.90
13589;DHT22;6865;52.552;13.434;2023-09-19T03:27:39;17.50;99.90
13589;DHT22;6865;52.552;13.434;2023-09-19T03:30:06;17.50;99.90
13589;DHT22;6865;52.552;13.434;2023-09-19T03:32:46;17.50;99.90
13589;DHT22;6865;52.552;13.434;2023-09-19T03:35:13;17.40;99.90
13589;DHT22;6865;52.552;13.434;2023-09-19T03:37:41;17.40;99.90
13589;DHT22;6865;52.552;13.434;2023-09-19T03:40:11;17.40;99.90
13589;DHT22;6865;52.552;13.434;2023-09-19T03:42:42;17.40;99.90
13589;DHT22;6865;52.552;13.434;2023-09-19T03:45:09;17.40;99.90
13589;DHT22;6865;52.552;13.434;2023-09-19T03:47:39;17.30;99.90
13589;DHT22;6865;52.552;13.434;2023-09-19T03:50:07;17.40;99.90
13589;DHT22;6865;52.552;13.434;2023-09-19T03:52:38;17.40;99.90
13589;DHT22;6865;52.552;13.434;2023-09-19T03:55:05;17.40;99.90
13589;DHT22;6865;52.552;13.434;2023-09-19T03:57:32;17.40;99.90
13589;DHT22;6865;52.552;13.434;2023-09-19T03:59:59;17.30;99.90
13589;DHT22;6865;52.552;13.434;2023-09-19T04:02:25;17.30;99.90
13589;DHT22;6865;52.552;13.434;2023-09-19T04:04:52;17.30;99.90
13589;DHT22;6865;52.552;13.434;2023-09-19T04:07:19;17.20;99.90
13589;DHT22;6865;52.552;13.434;2023-09-19T04:09:49;17.30;99.90
13589;DHT22;6865;52.552;13.434;2023-09-19T04:12:16;17.30;99.90
13589;DHT22;6865;52.552;13.434;2023-09-19T04:14:46;17.20;99.90
13589;DHT22;6865;52.552;13.434;2023-09-19T04:17:12;17.20;99.90
13589;DHT22;6865;52.552;13.434;2023-09-19T04:19:39;17.20;99.90
13589;DHT22;6865;52.552;13.434;2023-09-19T04:22:07;17.10;99.90
13589;DHT22;6865;52.552;13.434;2023-09-19T04:24:35;17.20;99.90
13589;DHT22;6865;52.552;13.434;2023-09-19T04:27:02;17.20;99.90
13589;DHT22;6865;52.552;13.434;2023-09-19T04:29:29;17.20;99.90
13589;DHT22;6865;52.552;13.434;2023-09-19T04:31:56;17.20;99.90
13589;DHT22;6865;52.552;13.434;2023-09-19T04:34:23;17.10;99.90
13589;DHT22;6865;52.552;13.434;2023-09-19T04:36:51;17.10;99.90
13589;DHT22;6865;52.552;13.434;2023-09-19T04:39:18;17.10;99.90
13589;DHT22;6865;52.552;13.434;2023-09-19T04:41:44;17.10;99.90
13589;DHT22;6865;52.552;13.434;2023-09-19T04:44:14;17.00;99.90
13589;DHT22;6865;52.552;13.434;2023-09-19T04:46:41;17.00;99.90
13589;DHT22;6865;52.552;13.434;2023-09-19T04:49:08;17.00;99.90
13589;DHT22;6865;52.552;13.434;2023-09-19T04:51:34;17.00;99.90
13589;DHT22;6865;52.552;13.434;2023-09-19T04:54:03;16.90;99.90
13589;DHT22;6865;52.552;13.434;2023-09-19T04:56:30;17.00;99.90
13589;DHT22;6865;52.552;13.434;2023-09-19T04:58:58;17.00;99.90
13589;DHT22;6865;52.552;13.434;2023-09-19T05:01:25;17.00;99.90
13589;DHT22;6865;52.552;13.434;2023-09-19T05:03:52;17.00;99.90
13589;DHT22;6865;52.552;13.434;2023-09-19T05:06:20;17.00;99.90
13589;DHT22;6865;52.552;13.434;2023-09-19T05:08:50;17.10;99.90
13589;DHT22;6865;52.552;13.434;2023-09-19T05:11:20;17.10;99.90
13589;DHT22;6865;52.552;13.434;2023-09-19T05:13:51;17.00;99.90
13589;DHT22;6865;52.552;13.434;2023-09-19T05:16:19;17.10;99.90
13589;DHT22;6865;52.552;13.434;2023-09-19T05:18:46;17.00;99.90
13589;DHT22;6865;52.552;13.434;2023-09-19T05:21:13;16.90;99.90
13589;DHT22;6865;52.552;13.434;2023-09-19T05:23:40;16.90;99.90
13589;DHT22;6865;52.552;13.434;2023-09-19T05:26:08;16.80;99.90
13589;DHT22;6865;52.552;13.434;2023-09-19T05:28:35;16.80;99.90
13589;DHT22;6865;52.552;13.434;2023-09-19T05:31:02;16.80;99.90
13589;DHT22;6865;52.552;13.434;2023-09-19T05:33:29;16.80;99.90
13589;DHT22;6865;52.552;13.434;2023-09-19T05:35:58;16.80;99.90
13589;DHT22;6865;52.552;13.434;2023-09-19T05:38:25;16.80;99.90
13589;DHT22;6865;52.552;13.434;2023-09-19T05:40:54;16.80;99.90
13589;DHT22;6865;52.552;13.434;2023-09-19T05:43:21;16.80;99.90
13589;DHT22;6865;52.552;13.434;2023-09-19T05:45:48;16.80;99.90
13589;DHT22;6865;52.552;13.434;2023-09-19T05:48:15;16.90;99.90
13589;DHT22;6865;52.552;13.434;2023-09-19T05:50:43;16.90;99.90
13589;DHT22;6865;52.552;13.434;2023-09-19T05:53:13;16.80;99.90
13589;DHT22;6865;52.552;13.434;2023-09-19T05:55:42;16.80;99.90
13589;DHT22;6865;52.552;13.434;2023-09-19T05:58:09;16.80;99.90
13589;DHT22;6865;52.552;13.434;2023-09-19T06:00:36;16.80;99.90
13589;DHT22;6865;52.552;13.434;2023-09-19T06:03:05;16.80;99.90
13589;DHT22;6865;52.552;13.434;2023-09-19T06:05:33;16.80;99.90
13589;DHT22;6865;52.552;13.434;2023-09-19T06:07:59;16.90;99.90
13589;DHT22;6865;52.552;13.434;2023-09-19T06:10:27;16.80;99.90
13589;DHT22;6865;52.552;13.434;2023-09-19T06:12:55;16.80;99.90
13589;DHT22;6865;52.552;13.434;2023-09-19T06:15:21;16.90;99.90
13589;DHT22;6865;52.552;13.434;2023-09-19T06:17:53;16.90;99.90
13589;DHT22;6865;52.552;13.434;2023-09-19T06:20:25;16.90;99.90
13589;DHT22;6865;52.552;13.434;2023-09-19T06:22:53;17.00;99.90
13589;DHT22;6865;52.552;13.434;2023-09-19T06:25:20;17.00;99.90
13589;DHT22;6865;52.552;13.434;2023-09-19T06:27:50;17.10;99.90
13589;DHT22;6865;52.552;13.434;2023-09-19T06:30:22;17.00;99.90
13589;DHT22;6865;52.552;13.434;2023-09-19T06:32:56;17.10;99.90
13589;DHT22;6865;52.552;13.434;2023-09-19T06:35:23;17.20;99.90
13589;DHT22;6865;52.552;13.434;2023-09-19T06:37:50;17.20;99.90
13589;DHT22;6865;52.552;13.434;2023-09-19T06:40:18;17.20;99.90
13589;DHT22;6865;52.552;13.434;2023-09-19T06:42:47;17.20;99.90
13589;DHT22;6865;52.552;13.434;2023-09-19T06:45:16;17.30;99.90
13589;DHT22;6865;52.552;13.434;2023-09-19T06:47:47;17.50;99.90
13589;DHT22;6865;52.552;13.434;2023-09-19T06:50:23;17.60;99.90
13589;DHT22;6865;52.552;13.434;2023-09-19T06:52:51;17.90;99.90
13589;DHT22;6865;52.552;13.434;2023-09-19T06:55:19;18.20;99.90
13589;DHT22;6865;52.552;13.434;2023-09-19T06:57:47;18.30;99.90
13589;DHT22;6865;52.552;13.434;2023-09-19T07:00:15;18.30;99.90
13589;DHT22;6865;52.552;13.434;2023-09-19T07:02:45;18.50;99.90
13589;DHT22;6865;52.552;13.434;2023-09-19T07:05:20;18.50;99.90
13589;DHT22;6865;52.552;13.434;2023-09-19T07:07:48;18.50;99.90
13589;DHT22;6865;52.552;13.434;2023-09-19T07:10:15;18.80;99.90
13589;DHT22;6865;52.552;13.434;2023-09-19T07:12:42;19.00;99.90
13589;DHT22;6865;52.552;13.434;2023-09-19T07:15:09;19.10;99.90
13589;DHT22;6865;52.552;13.434;2023-09-19T07:17:36;19.00;99.90
13589;DHT22;6865;52.552;13.434;2023-09-19T07:20:03;19.00;99.90
13589;DHT22;6865;52.552;13.434;2023-09-19T07:22:34;18.90;99.90
13589;DHT22;6865;52.552;13.434;2023-09-19T07:25:02;18.80;99.90
13589;DHT22;6865;52.552;13.434;2023-09-19T07:27:29;18.70;99.90
13589;DHT22;6865;52.552;13.434;2023-09-19T07:29:56;18.70;99.90
13589;DHT22;6865;52.552;13.434;2023-09-19T07:32:23;18.70;99.90
13589;DHT22;6865;52.552;13.434;2023-09-19T07:34:50;18.70;99.90
13589;DHT22;6865;52.552;13.434;2023-09-19T07:37:17;18.70;99.90
13589;DHT22;6865;52.552;13.434;2023-09-19T07:39:44;18.60;99.90
13589;DHT22;6865;52.552;13.434;2023-09-19T07:42:11;18.70;99.90
13589;DHT22;6865;52.552;13.434;2023-09-19T07:44:44;18.60;99.90
13589;DHT22;6865;52.552;13.434;2023-09-19T07:47:14;18.50;99.90
13589;DHT22;6865;52.552;13.434;2023-09-19T07:49:40;18.60;99.90
13589;DHT22;6865;52.552;13.434;2023-09-19T07:52:09;18.70;99.90
13589;DHT22;6865;52.552;13.434;2023-09-19T07:54:36;18.90;99.90
13589;DHT22;6865;52.552;13.434;2023-09-19T07:57:05;18.90;99.90
13589;DHT22;6865;52.552;13.434;2023-09-19T07:59:31;18.90;99.90
13589;DHT22;6865;52.552;13.434;2023-09-19T08:01:58;18.80;99.90
13589;DHT22;6865;52.552;13.434;2023-09-19T08:04:25;18.80;99.90
13589;DHT22;6865;52.552;13.434;2023-09-19T08:06:52;18.90;99.90
13589;DHT22;6865;52.552;13.434;2023-09-19T08:09:19;19.10;99.90
13589;DHT22;6865;52.552;13.434;2023-09-19T08:11:51;19.30;99.90
13589;DHT22;6865;52.552;13.434;2023-09-19T08:14:17;19.20;99.90
13589;DHT22;6865;52.552;13.434;2023-09-19T08:16:44;19.00;99.90
13589;DHT22;6865;52.552;13.434;2023-09-19T08:19:11;19.00;99.90
13589;DHT22;6865;52.552;13.434;2023-09-19T08:21:38;19.20;99.90
13589;DHT22;6865;52.552;13.434;2023-09-19T08:24:05;19.30;99.90
13589;DHT22;6865;52.552;13.434;2023-09-19T08:26:32;19.00;99.90
13589;DHT22;6865;52.552;13.434;2023-09-19T08:28:59;18.80;99.90
13589;DHT22;6865;52.552;13.434;2023-09-19T08:31:32;18.70;99.90
13589;DHT22;6865;52.552;13.434;2023-09-19T08:34:00;18.40;99.90
13589;DHT22;6865;52.552;13.434;2023-09-19T08:36:27;18.70;99.90
13589;DHT22;6865;52.552;13.434;2023-09-19T08:38:53;18.70;99.90
13589;DHT22;6865;52.552;13.434;2023-09-19T08:41:20;18.50;99.90
13589;DHT22;6865;52.552;13.434;2023-09-19T08:43:47;18.60;99.90
13589;DHT22;6865;52.552;13.434;2023-09-19T08:46:18;18.60;99.90
13589;DHT22;6865;52.552;13.434;2023-09-19T08:48:57;18.70;99.90
13589;DHT22;6865;52.552;13.434;2023-09-19T08:51:38;18.60;99.90
13589;DHT22;6865;52.552;13.434;2023-09-19T08:54:07;18.50;99.90
13589;DHT22;6865;52.552;13.434;2023-09-19T08:56:34;18.50;99.90
13589;DHT22;6865;52.552;13.434;2023-09-19T08:59:06;18.70;99.90
13589;DHT22;6865;52.552;13.434;2023-09-19T09:01:38;18.60;99.90
13589;DHT22;6865;52.552;13.434;2023-09-19T09:04:09;18.80;99.90
13589;DHT22;6865;52.552;13.434;2023-09-19T09:06:41;18.90;99.90
13589;DHT22;6865;52.552;13.434;2023-09-19T09:09:10;18.90;99.90
13589;DHT22;6865;52.552;13.434;2023-09-19T09:11:38;18.90;99.90
13589;DHT22;6865;52.552;13.434;2023-09-19T09:14:07;18.90;99.90
13589;DHT22;6865;52.552;13.434;2023-09-19T09:16:34;18.90;99.90
13589;DHT22;6865;52.552;13.434;2023-09-19T09:19:01;19.00;99.90
13589;DHT22;6865;52.552;13.434;2023-09-19T09:21:28;19.00;99.90
13589;DHT22;6865;52.552;13.434;2023-09-19T09:23:55;18.90;99.90
13589;DHT22;6865;52.552;13.434;2023-09-19T09:29:06;19.00;99.90
13589;DHT22;6865;52.552;13.434;2023-09-19T09:31:33;19.00;99.90
13589;DHT22;6865;52.552;13.434;2023-09-19T09:34:00;19.20;99.90
13589;DHT22;6865;52.552;13.434;2023-09-19T09:36:39;19.40;99.90
13589;DHT22;6865;52.552;13.434;2023-09-19T09:39:07;19.40;99.90
13589;DHT22;6865;52.552;13.434;2023-09-19T09:41:51;19.40;99.90
13589;DHT22;6865;52.552;13.434;2023-09-19T09:44:18;19.30;99.90
13589;DHT22;6865;52.552;13.434;2023-09-19T09:46:47;19.40;99.90
13589;DHT22;6865;52.552;13.434;2023-09-19T09:49:27;19.40;99.90
13589;DHT22;6865;52.552;13.434;2023-09-19T09:52:01;19.40;99.90
13589;DHT22;6865;52.552;13.434;2023-09-19T09:54:35;19.60;99.90
13589;DHT22;6865;52.552;13.434;2023-09-19T09:57:10;19.70;99.90
13589;DHT22;6865;52.552;13.434;2023-09-19T10:02:17;19.40;99.90
13589;DHT22;6865;52.552;13.434;2023-09-19T10:04:56;19.40;99.90
13589;DHT22;6865;52.552;13.434;2023-09-19T10:07:36;19.50;99.90
13589;DHT22;6865;52.552;13.434;2023-09-19T10:10:10;19.50;99.90
13589;DHT22;6865;52.552;13.434;2023-09-19T10:12:45;19.30;99.90
13589;DHT22;6865;52.552;13.434;2023-09-19T10:15:18;19.20;99.90
13589;DHT22;6865;52.552;13.434;2023-09-19T10:17:52;19.10;99.90
13589;DHT22;6865;52.552;13.434;2023-09-19T10:20:23;19.30;99.90
13589;DHT22;6865;52.552;13.434;2023-09-19T10:23:00;19.50;99.90
13589;DHT22;6865;52.552;13.434;2023-09-19T10:25:27;19.60;99.80
13589;DHT22;6865;52.552;13.434;2023-09-19T10:28:00;19.90;99.00
13589;DHT22;6865;52.552;13.434;2023-09-19T10:30:37;19.70;97.90
13589;DHT22;6865;52.552;13.434;2023-09-19T10:33:09;19.80;98.60
13589;DHT22;6865;52.552;13.434;2023-09-19T10:35:39;19.70;97.80
13589;DHT22;6865;52.552;13.434;2023-09-19T10:38:14;19.80;97.20
13589;DHT22;6865;52.552;13.434;2023-09-19T10:40:50;19.90;96.40
13589;DHT22;6865;52.552;13.434;2023-09-19T10:43:20;19.90;96.40
13589;DHT22;6865;52.552;13.434;2023-09-19T10:45:49;19.90;95.10
13589;DHT22;6865;52.552;13.434;2023-09-19T10:48:17;19.90;94.80
13589;DHT22;6865;52.552;13.434;2023-09-19T10:50:55;20.00;95.00
13589;DHT22;6865;52.552;13.434;2023-09-19T10:53:27;20.20;94.80
13589;DHT22;6865;52.552;13.434;2023-09-19T10:55:59;20.40;95.10
13589;DHT22;6865;52.552;13.434;2023-09-19T10:58:31;20.10;94.80
13589;DHT22;6865;52.552;13.434;2023-09-19T11:01:04;19.80;95.20
13589;DHT22;6865;52.552;13.434;2023-09-19T11:03:36;19.70;95.20
13589;DHT22;6865;52.552;13.434;2023-09-19T11:06:14;19.50;94.70
13589;DHT22;6865;52.552;13.434;2023-09-19T11:08:53;19.30;94.50
13589;DHT22;6865;52.552;13.434;2023-09-19T11:11:50;19.40;94.60
13589;DHT22;6865;52.552;13.434;2023-09-19T11:30:49;20.10;93.20
13589;DHT22;6865;52.552;13.434;2023-09-19T11:38:57;20.20;92.30
13589;DHT22;6865;52.552;13.434;2023-09-19T11:46:31;20.50;92.00
13589;DHT22;6865;52.552;13.434;2023-09-19T11:49:08;20.50;91.90
13589;DHT22;6865;52.552;13.434;2023-09-19T11:51:43;20.50;91.60
13589;DHT22;6865;52.552;13.434;2023-09-19T11:54:12;20.40;90.80
13589;DHT22;6865;52.552;13.434;2023-09-19T11:56:45;20.30;90.70
13589;DHT22;6865;52.552;13.434;2023-09-19T11:59:23;20.20;90.80
13589;DHT22;6865;52.552;13.434;2023-09-19T12:01:51;20.20;90.80
13589;DHT22;6865;52.552;13.434;2023-09-19T12:04:38;20.30;90.60
13589;DHT22;6865;52.552;13.434;2023-09-19T12:07:14;20.50;90.40
13589;DHT22;6865;52.552;13.434;2023-09-19T12:09:47;20.50;90.70
13589;DHT22;6865;52.552;13.434;2023-09-19T12:12:24;20.30;90.80
13589;DHT22;6865;52.552;13.434;2023-09-19T12:14:54;20.20;91.00
13589;DHT22;6865;52.552;13.434;2023-09-19T12:17:39;20.40;91.10
13589;DHT22;6865;52.552;13.434;2023-09-19T12:20:08;20.50;90.60
13589;DHT22;6865;52.552;13.434;2023-09-19T12:22:42;20.30;90.60
13589;DHT22;6865;52.552;13.434;2023-09-19T12:25:10;20.30;90.40
13589;DHT22;6865;52.552;13.434;2023-09-19T12:27:45;20.40;90.00
13589;DHT22;6865;52.552;13.434;2023-09-19T12:30:16;20.40;89.20
13589;DHT22;6865;52.552;13.434;2023-09-19T12:32:53;20.30;88.10
13589;DHT22;6865;52.552;13.434;2023-09-19T12:35:33;20.30;88.40
13589;DHT22;6865;52.552;13.434;2023-09-19T12:38:03;20.40;88.80
13589;DHT22;6865;52.552;13.434;2023-09-19T12:40:31;20.50;87.60
13589;DHT22;6865;52.552;13.434;2023-09-19T12:43:00;20.50;86.70
13589;DHT22;6865;52.552;13.434;2023-09-19T12:45:30;20.50;86.30
13589;DHT22;6865;52.552;13.434;2023-09-19T12:51:07;20.60;86.10
13589;DHT22;6865;52.552;13.434;2023-09-19T12:53:43;20.60;86.10
13589;DHT22;6865;52.552;13.434;2023-09-19T12:56:14;20.70;84.80
13589;DHT22;6865;52.552;13.434;2023-09-19T12:58:53;20.80;84.90
13589;DHT22;6865;52.552;13.434;2023-09-19T13:01:25;20.80;85.20
13589;DHT22;6865;52.552;13.434;2023-09-19T13:04:11;20.90;85.30
13589;DHT22;6865;52.552;13.434;2023-09-19T13:06:52;20.80;84.90
13589;DHT22;6865;52.552;13.434;2023-09-19T13:09:21;20.70;85.60
13589;DHT22;6865;52.552;13.434;2023-09-19T13:11:49;20.60;85.70
13589;DHT22;6865;52.552;13.434;2023-09-19T13:14:25;20.60;86.40
13589;DHT22;6865;52.552;13.434;2023-09-19T13:19:44;20.50;85.90
13589;DHT22;6865;52.552;13.434;2023-09-19T13:22:44;20.50;86.20
13589;DHT22;6865;52.552;13.434;2023-09-19T13:25:21;20.40;87.10
13589;DHT22;6865;52.552;13.434;2023-09-19T13:27:51;20.30;87.30
13589;DHT22;6865;52.552;13.434;2023-09-19T13:30:19;20.40;87.20
13589;DHT22;6865;52.552;13.434;2023-09-19T13:32:47;20.40;85.30
13589;DHT22;6865;52.552;13.434;2023-09-19T13:35:15;20.30;84.50
13589;DHT22;6865;52.552;13.434;2023-09-19T13:37:43;20.20;85.10
13589;DHT22;6865;52.552;13.434;2023-09-19T13:40:14;20.30;86.00
13589;DHT22;6865;52.552;13.434;2023-09-19T13:42:42;20.20;86.00
13589;DHT22;6865;52.552;13.434;2023-09-19T13:45:10;20.30;85.90
13589;DHT22;6865;52.552;13.434;2023-09-19T13:47:40;20.20;85.80
13589;DHT22;6865;52.552;13.434;2023-09-19T13:50:07;20.20;86.30
13589;DHT22;6865;52.552;13.434;2023-09-19T13:52:35;20.30;86.10
13589;DHT22;6865;52.552;13.434;2023-09-19T13:55:01;20.50;86.30
13589;DHT22;6865;52.552;13.434;2023-09-19T13:57:28;20.30;86.10
13589;DHT22;6865;52.552;13.434;2023-09-19T13:59:56;20.30;86.60
13589;DHT22;6865;52.552;13.434;2023-09-19T14:02:23;20.30;86.30
13589;DHT22;6865;52.552;13.434;2023-09-19T14:04:52;20.30;85.90
13589;DHT22;6865;52.552;13.434;2023-09-19T14:07:19;20.50;85.10
13589;DHT22;6865;52.552;13.434;2023-09-19T14:09:47;20.40;85.30
13589;DHT22;6865;52.552;13.434;2023-09-19T14:12:14;20.50;85.40
13589;DHT22;6865;52.552;13.434;2023-09-19T14:14:41;20.60;85.00
13589;DHT22;6865;52.552;13.434;2023-09-19T14:17:08;20.60;84.60
13589;DHT22;6865;52.552;13.434;2023-09-19T14:19:36;20.70;86.20
13589;DHT22;6865;52.552;13.434;2023-09-19T14:22:04;20.70;85.60
13589;DHT22;6865;52.552;13.434;2023-09-19T14:24:34;20.70;85.20
13589;DHT22;6865;52.552;13.434;2023-09-19T14:27:01;20.70;85.20
13589;DHT22;6865;52.552;13.434;2023-09-19T14:29:31;20.70;85.40
13589;DHT22;6865;52.552;13.434;2023-09-19T14:31:58;20.60;85.80
13589;DHT22;6865;52.552;13.434;2023-09-19T14:34:26;20.60;86.20
13589;DHT22;6865;52.552;13.434;2023-09-19T14:36:53;20.60;86.10
13589;DHT22;6865;52.552;13.434;2023-09-19T14:39:21;20.80;85.90
13589;DHT22;6865;52.552;13.434;2023-09-19T14:41:48;20.70;85.50
13589;DHT22;6865;52.552;13.434;2023-09-19T14:44:14;20.60;85.60
13589;DHT22;6865;52.552;13.434;2023-09-19T14:46:43;20.60;86.10
13589;DHT22;6865;52.552;13.434;2023-09-19T14:49:13;20.60;86.10
13589;DHT22;6865;52.552;13.434;2023-09-19T14:51:42;20.50;86.50
13589;DHT22;6865;52.552;13.434;2023-09-19T14:54:10;20.40;86.60
13589;DHT22;6865;52.552;13.434;2023-09-19T14:56:37;20.40;86.90
13589;DHT22;6865;52.552;13.434;2023-09-19T14:59:04;20.50;86.80
13589;DHT22;6865;52.552;13.434;2023-09-19T15:01:31;20.60;86.60
13589;DHT22;6865;52.552;13.434;2023-09-19T15:03:59;20.50;86.80
13589;DHT22;6865;52.552;13.434;2023-09-19T15:06:27;20.40;86.90
13589;DHT22;6865;52.552;13.434;2023-09-19T15:08:54;20.40;87.20
13589;DHT22;6865;52.552;13.434;2023-09-19T15:11:21;20.40;87.60
13589;DHT22;6865;52.552;13.434;2023-09-19T15:13:51;20.30;86.60
13589;DHT22;6865;52.552;13.434;2023-09-19T15:16:20;20.30;86.80
13589;DHT22;6865;52.552;13.434;2023-09-19T15:18:47;20.20;86.90
13589;DHT22;6865;52.552;13.434;2023-09-19T15:21:15;20.20;87.20
13589;DHT22;6865;52.552;13.434;2023-09-19T15:23:43;20.10;86.60
13589;DHT22;6865;52.552;13.434;2023-09-19T15:26:13;20.20;86.50
13589;DHT22;6865;52.552;13.434;2023-09-19T15:28:40;20.20;85.70
13589;DHT22;6865;52.552;13.434;2023-09-19T15:31:10;20.20;85.80
13589;DHT22;6865;52.552;13.434;2023-09-19T15:33:37;20.20;86.30
13589;DHT22;6865;52.552;13.434;2023-09-19T15:36:12;20.10;86.70
13589;DHT22;6865;52.552;13.434;2023-09-19T15:39:06;20.10;86.50
13589;DHT22;6865;52.552;13.434;2023-09-19T15:41:36;20.00;86.70
13589;DHT22;6865;52.552;13.434;2023-09-19T15:44:05;20.00;86.90
13589;DHT22;6865;52.552;13.434;2023-09-19T15:46:36;20.00;87.20
13589;DHT22;6865;52.552;13.434;2023-09-19T15:49:04;20.10;87.30
13589;DHT22;6865;52.552;13.434;2023-09-19T15:51:31;20.10;87.50
13589;DHT22;6865;52.552;13.434;2023-09-19T15:53:57;20.20;87.20
13589;DHT22;6865;52.552;13.434;2023-09-19T15:56:26;20.20;88.30
13589;DHT22;6865;52.552;13.434;2023-09-19T15:58:55;20.10;87.80
13589;DHT22;6865;52.552;13.434;2023-09-19T16:01:23;20.00;88.30
13589;DHT22;6865;52.552;13.434;2023-09-19T16:03:53;20.00;88.70
13589;DHT22;6865;52.552;13.434;2023-09-19T16:06:25;20.00;87.80
13589;DHT22;6865;52.552;13.434;2023-09-19T16:08:53;19.90;87.90
13589;DHT22;6865;52.552;13.434;2023-09-19T16:11:22;19.90;88.10
13589;DHT22;6865;52.552;13.434;2023-09-19T16:13:50;19.90;88.10
13589;DHT22;6865;52.552;13.434;2023-09-19T16:16:19;19.90;88.10
13589;DHT22;6865;52.552;13.434;2023-09-19T16:18:53;20.00;87.40
13589;DHT22;6865;52.552;13.434;2023-09-19T16:21:25;20.00;87.60
13589;DHT22;6865;52.552;13.434;2023-09-19T16:23:57;19.90;87.70
13589;DHT22;6865;52.552;13.434;2023-09-19T16:26:25;19.80;87.70
13589;DHT22;6865;52.552;13.434;2023-09-19T16:28:57;19.80;87.80
13589;DHT22;6865;52.552;13.434;2023-09-19T16:31:31;19.70;87.50